sensor_id;sensor_type;location;lat;lon;timestamp;P1;durP1;ratioP1;P2;durP2;ratioP2
55815;SDS011;41744;52.404;16.942;2023-02-01T00:02:02;12.10;;;1.63;;
55815;SDS011;41744;52.404;16.942;2023-02-01T00:04:28;8.67;;;1.27;;
55815;SDS011;41744;52.404;16.942;2023-02-01T00:06:55;8.60;;;1.53;;
55815;SDS011;41744;52.404;16.942;2023-02-01T00:09:24;10.33;;;1.57;;
55815;SDS011;41744;52.404;16.942;2023-02-01T00:11:50;14.10;;;1.50;;
55815;SDS011;41744;52.404;16.942;2023-02-01T00:14:16;4.67;;;1.30;;
55815;SDS011;41744;52.404;16.942;2023-02-01T00:16:42;11.27;;;1.67;;
55815;SDS011;41744;52.404;16.942;2023-02-01T00:19:12;12.03;;;2.00;;
55815;SDS011;41744;52.404;16.942;2023-02-01T00:21:38;11.43;;;1.73;;
55815;SDS011;41744;52.404;16.942;2023-02-01T00:24:04;9.80;;;1.43;;
55815;SDS011;41744;52.404;16.942;2023-02-01T00:26:35;9.50;;;1.87;;
55815;SDS011;41744;52.404;16.942;2023-02-01T00:29:01;10.80;;;1.47;;
55815;SDS011;41744;52.404;16.942;2023-02-01T00:31:28;11.53;;;1.60;;
55815;SDS011;41744;52.404;16.942;2023-02-01T00:33:54;16.67;;;2.17;;
55815;SDS011;41744;52.404;16.942;2023-02-01T00:36:20;10.53;;;1.50;;
55815;SDS011;41744;52.404;16.942;2023-02-01T00:38:47;7.87;;;1.47;;
55815;SDS011;41744;52.404;16.942;2023-02-01T00:41:14;11.17;;;1.40;;
55815;SDS011;41744;52.404;16.942;2023-02-01T00:43:41;7.30;;;1.73;;
55815;SDS011;41744;52.404;16.942;2023-02-01T00:46:07;8.63;;;1.60;;
55815;SDS011;41744;52.404;16.942;2023-02-01T00:48:34;7.57;;;1.50;;
55815;SDS011;41744;52.404;16.942;2023-02-01T00:51:01;12.27;;;1.40;;
55815;SDS011;41744;52.404;16.942;2023-02-01T00:53:27;8.90;;;1.60;;
55815;SDS011;41744;52.404;16.942;2023-02-01T00:55:53;4.63;;;1.13;;
55815;SDS011;41744;52.404;16.942;2023-02-01T00:58:23;9.63;;;1.40;;
55815;SDS011;41744;52.404;16.942;2023-02-01T01:01:00;15.63;;;2.03;;
55815;SDS011;41744;52.404;16.942;2023-02-01T01:03:26;7.03;;;1.30;;
55815;SDS011;41744;52.404;16.942;2023-02-01T01:05:56;13.23;;;1.83;;
55815;SDS011;41744;52.404;16.942;2023-02-01T01:08:22;9.77;;;1.73;;
55815;SDS011;41744;52.404;16.942;2023-02-01T01:10:48;10.17;;;1.47;;
55815;SDS011;41744;52.404;16.942;2023-02-01T01:13:14;8.10;;;1.20;;
55815;SDS011;41744;52.404;16.942;2023-02-01T01:15:41;6.93;;;1.33;;
55815;SDS011;41744;52.404;16.942;2023-02-01T01:18:07;10.07;;;1.40;;
55815;SDS011;41744;52.404;16.942;2023-02-01T01:20:33;10.63;;;1.70;;
55815;SDS011;41744;52.404;16.942;2023-02-01T01:23:00;8.07;;;1.10;;
55815;SDS011;41744;52.404;16.942;2023-02-01T01:25:26;8.77;;;1.30;;
55815;SDS011;41744;52.404;16.942;2023-02-01T01:27:53;12.80;;;1.93;;
55815;SDS011;41744;52.404;16.942;2023-02-01T01:30:19;16.63;;;1.90;;
55815;SDS011;41744;52.404;16.942;2023-02-01T01:32:45;11.73;;;1.70;;
55815;SDS011;41744;52.404;16.942;2023-02-01T01:35:11;7.93;;;1.30;;
55815;SDS011;41744;52.404;16.942;2023-02-01T01:37:37;9.83;;;1.57;;
55815;SDS011;41744;52.404;16.942;2023-02-01T01:40:04;7.57;;;1.07;;
55815;SDS011;41744;52.404;16.942;2023-02-01T01:42:30;8.63;;;1.23;;
55815;SDS011;41744;52.404;16.942;2023-02-01T01:44:57;5.67;;;1.30;;
55815;SDS011;41744;52.404;16.942;2023-02-01T01:47:27;9.73;;;1.73;;
55815;SDS011;41744;52.404;16.942;2023-02-01T01:49:55;8.30;;;1.70;;
55815;SDS011;41744;52.404;16.942;2023-02-01T01:52:21;6.47;;;1.47;;
55815;SDS011;41744;52.404;16.942;2023-02-01T01:54:48;6.23;;;1.20;;
55815;SDS011;41744;52.404;16.942;2023-02-01T01:57:15;7.00;;;1.30;;
55815;SDS011;41744;52.404;16.942;2023-02-01T01:59:42;5.97;;;1.87;;
55815;SDS011;41744;52.404;16.942;2023-02-01T02:02:09;7.70;;;1.13;;
55815;SDS011;41744;52.404;16.942;2023-02-01T02:04:35;12.73;;;1.40;;
55815;SDS011;41744;52.404;16.942;2023-02-01T02:07:07;7.63;;;1.23;;
55815;SDS011;41744;52.404;16.942;2023-02-01T02:09:34;13.60;;;1.70;;
55815;SDS011;41744;52.404;16.942;2023-02-01T02:12:00;11.10;;;1.33;;
55815;SDS011;41744;52.404;16.942;2023-02-01T02:14:26;6.03;;;1.23;;
55815;SDS011;41744;52.404;16.942;2023-02-01T02:22:39;12.53;;;1.53;;
55815;SDS011;41744;52.404;16.942;2023-02-01T02:40:55;4.63;;;1.40;;
55815;SDS011;41744;52.404;16.942;2023-02-01T02:43:32;12.13;;;1.20;;
55815;SDS011;41744;52.404;16.942;2023-02-01T02:46:24;12.43;;;1.63;;
55815;SDS011;41744;52.404;16.942;2023-02-01T02:49:15;7.70;;;1.77;;
55815;SDS011;41744;52.404;16.942;2023-02-01T02:51:52;15.50;;;1.27;;
55815;SDS011;41744;52.404;16.942;2023-02-01T02:54:39;9.33;;;1.20;;
55815;SDS011;41744;52.404;16.942;2023-02-01T02:57:19;11.67;;;1.60;;
55815;SDS011;41744;52.404;16.942;2023-02-01T03:00:06;9.13;;;1.40;;
55815;SDS011;41744;52.404;16.942;2023-02-01T03:02:53;10.27;;;1.43;;
55815;SDS011;41744;52.404;16.942;2023-02-01T03:05:40;9.67;;;1.47;;
55815;SDS011;41744;52.404;16.942;2023-02-01T03:08:19;6.57;;;1.30;;
55815;SDS011;41744;52.404;16.942;2023-02-01T03:18:18;10.30;;;1.47;;
55815;SDS011;41744;52.404;16.942;2023-02-01T03:20:46;11.30;;;1.43;;
55815;SDS011;41744;52.404;16.942;2023-02-01T03:23:13;13.37;;;2.20;;
55815;SDS011;41744;52.404;16.942;2023-02-01T03:25:41;10.27;;;1.57;;
55815;SDS011;41744;52.404;16.942;2023-02-01T03:28:08;8.60;;;1.33;;
55815;SDS011;41744;52.404;16.942;2023-02-01T03:30:38;10.23;;;1.87;;
55815;SDS011;41744;52.404;16.942;2023-02-01T03:33:08;17.63;;;2.10;;
55815;SDS011;41744;52.404;16.942;2023-02-01T03:38:18;20.50;;;1.70;;
55815;SDS011;41744;52.404;16.942;2023-02-01T03:40:46;10.27;;;1.70;;
55815;SDS011;41744;52.404;16.942;2023-02-01T03:43:14;10.13;;;1.93;;
55815;SDS011;41744;52.404;16.942;2023-02-01T03:45:43;11.90;;;1.50;;
55815;SDS011;41744;52.404;16.942;2023-02-01T03:48:10;12.90;;;1.77;;
55815;SDS011;41744;52.404;16.942;2023-02-01T03:50:38;11.30;;;1.60;;
55815;SDS011;41744;52.404;16.942;2023-02-01T03:53:09;13.80;;;1.70;;
55815;SDS011;41744;52.404;16.942;2023-02-01T03:55:36;10.97;;;1.93;;
55815;SDS011;41744;52.404;16.942;2023-02-01T03:58:10;13.10;;;1.57;;
55815;SDS011;41744;52.404;16.942;2023-02-01T04:00:37;11.43;;;1.50;;
55815;SDS011;41744;52.404;16.942;2023-02-01T04:03:04;9.53;;;1.50;;
55815;SDS011;41744;52.404;16.942;2023-02-01T04:05:32;15.27;;;1.80;;
55815;SDS011;41744;52.404;16.942;2023-02-01T04:07:58;17.87;;;1.60;;
55815;SDS011;41744;52.404;16.942;2023-02-01T04:10:24;6.57;;;1.30;;
55815;SDS011;41744;52.404;16.942;2023-02-01T04:12:50;13.23;;;1.63;;
55815;SDS011;41744;52.404;16.942;2023-02-01T04:15:19;9.27;;;1.43;;
55815;SDS011;41744;52.404;16.942;2023-02-01T04:17:45;14.53;;;1.70;;
55815;SDS011;41744;52.404;16.942;2023-02-01T04:20:15;8.10;;;1.40;;
55815;SDS011;41744;52.404;16.942;2023-02-01T04:22:41;7.57;;;1.40;;
55815;SDS011;41744;52.404;16.942;2023-02-01T04:25:07;9.83;;;1.47;;
55815;SDS011;41744;52.404;16.942;2023-02-01T04:27:33;11.83;;;2.40;;
55815;SDS011;41744;52.404;16.942;2023-02-01T04:29:59;9.37;;;1.57;;
55815;SDS011;41744;52.404;16.942;2023-02-01T04:32:26;14.93;;;1.67;;
55815;SDS011;41744;52.404;16.942;2023-02-01T04:34:52;6.27;;;1.63;;
55815;SDS011;41744;52.404;16.942;2023-02-01T04:37:18;9.20;;;1.73;;
55815;SDS011;41744;52.404;16.942;2023-02-01T04:39:44;12.30;;;1.63;;
55815;SDS011;41744;52.404;16.942;2023-02-01T04:42:10;11.83;;;1.60;;
55815;SDS011;41744;52.404;16.942;2023-02-01T04:44:36;11.87;;;1.63;;
55815;SDS011;41744;52.404;16.942;2023-02-01T04:47:04;11.57;;;1.50;;
55815;SDS011;41744;52.404;16.942;2023-02-01T04:49:30;9.00;;;2.07;;
55815;SDS011;41744;52.404;16.942;2023-02-01T04:51:56;8.77;;;1.23;;
55815;SDS011;41744;52.404;16.942;2023-02-01T04:54:22;6.80;;;1.73;;
55815;SDS011;41744;52.404;16.942;2023-02-01T04:56:48;10.17;;;1.63;;
55815;SDS011;41744;52.404;16.942;2023-02-01T04:59:14;7.20;;;1.50;;
55815;SDS011;41744;52.404;16.942;2023-02-01T05:01:40;11.63;;;1.40;;
55815;SDS011;41744;52.404;16.942;2023-02-01T05:04:06;8.33;;;1.57;;
55815;SDS011;41744;52.404;16.942;2023-02-01T05:06:32;8.07;;;1.60;;
55815;SDS011;41744;52.404;16.942;2023-02-01T05:08:58;5.67;;;1.40;;
55815;SDS011;41744;52.404;16.942;2023-02-01T05:11:24;8.57;;;1.87;;
55815;SDS011;41744;52.404;16.942;2023-02-01T05:14:09;9.43;;;1.80;;
55815;SDS011;41744;52.404;16.942;2023-02-01T05:16:36;13.30;;;1.90;;
55815;SDS011;41744;52.404;16.942;2023-02-01T05:19:02;13.33;;;1.70;;
55815;SDS011;41744;52.404;16.942;2023-02-01T05:21:28;8.77;;;1.30;;
55815;SDS011;41744;52.404;16.942;2023-02-01T05:23:54;7.77;;;1.63;;
55815;SDS011;41744;52.404;16.942;2023-02-01T05:26:35;10.07;;;1.53;;
55815;SDS011;41744;52.404;16.942;2023-02-01T05:29:02;8.90;;;1.70;;
55815;SDS011;41744;52.404;16.942;2023-02-01T05:31:28;12.47;;;1.73;;
55815;SDS011;41744;52.404;16.942;2023-02-01T05:33:54;6.13;;;1.53;;
55815;SDS011;41744;52.404;16.942;2023-02-01T05:36:20;9.03;;;1.43;;
55815;SDS011;41744;52.404;16.942;2023-02-01T05:38:46;11.23;;;1.73;;
55815;SDS011;41744;52.404;16.942;2023-02-01T05:41:12;9.87;;;2.13;;
55815;SDS011;41744;52.404;16.942;2023-02-01T05:43:38;6.73;;;1.40;;
55815;SDS011;41744;52.404;16.942;2023-02-01T05:46:04;12.63;;;1.70;;
55815;SDS011;41744;52.404;16.942;2023-02-01T05:48:30;10.77;;;1.37;;
55815;SDS011;41744;52.404;16.942;2023-02-01T05:50:56;16.07;;;2.17;;
55815;SDS011;41744;52.404;16.942;2023-02-01T05:53:22;8.03;;;1.53;;
55815;SDS011;41744;52.404;16.942;2023-02-01T05:55:48;8.90;;;1.60;;
55815;SDS011;41744;52.404;16.942;2023-02-01T05:58:14;9.07;;;1.70;;
55815;SDS011;41744;52.404;16.942;2023-02-01T06:00:40;10.20;;;1.27;;
55815;SDS011;41744;52.404;16.942;2023-02-01T06:03:07;12.23;;;2.30;;
55815;SDS011;41744;52.404;16.942;2023-02-01T06:05:33;12.03;;;1.83;;
55815;SDS011;41744;52.404;16.942;2023-02-01T06:07:59;14.13;;;2.27;;
55815;SDS011;41744;52.404;16.942;2023-02-01T06:10:25;12.57;;;1.93;;
55815;SDS011;41744;52.404;16.942;2023-02-01T06:12:51;16.37;;;2.20;;
55815;SDS011;41744;52.404;16.942;2023-02-01T06:15:17;8.00;;;1.53;;
55815;SDS011;41744;52.404;16.942;2023-02-01T06:17:44;10.37;;;1.80;;
55815;SDS011;41744;52.404;16.942;2023-02-01T06:20:11;13.63;;;1.97;;
55815;SDS011;41744;52.404;16.942;2023-02-01T06:22:37;10.53;;;2.00;;
55815;SDS011;41744;52.404;16.942;2023-02-01T06:25:06;7.57;;;1.50;;
55815;SDS011;41744;52.404;16.942;2023-02-01T06:27:33;7.07;;;1.67;;
55815;SDS011;41744;52.404;16.942;2023-02-01T06:29:59;11.37;;;2.23;;
55815;SDS011;41744;52.404;16.942;2023-02-01T06:32:25;8.27;;;1.90;;
55815;SDS011;41744;52.404;16.942;2023-02-01T06:34:51;17.70;;;2.40;;
55815;SDS011;41744;52.404;16.942;2023-02-01T06:37:17;9.07;;;1.80;;
55815;SDS011;41744;52.404;16.942;2023-02-01T06:39:44;12.87;;;1.87;;
55815;SDS011;41744;52.404;16.942;2023-02-01T06:42:10;13.20;;;2.47;;
55815;SDS011;41744;52.404;16.942;2023-02-01T06:44:36;10.43;;;2.47;;
55815;SDS011;41744;52.404;16.942;2023-02-01T06:47:03;17.73;;;2.50;;
55815;SDS011;41744;52.404;16.942;2023-02-01T06:49:29;12.07;;;2.10;;
55815;SDS011;41744;52.404;16.942;2023-02-01T06:51:55;10.20;;;2.40;;
55815;SDS011;41744;52.404;16.942;2023-02-01T06:54:21;18.33;;;2.60;;
55815;SDS011;41744;52.404;16.942;2023-02-01T06:56:47;12.23;;;2.77;;
55815;SDS011;41744;52.404;16.942;2023-02-01T06:59:13;11.87;;;2.53;;
55815;SDS011;41744;52.404;16.942;2023-02-01T07:01:39;15.37;;;2.60;;
55815;SDS011;41744;52.404;16.942;2023-02-01T07:04:06;17.07;;;2.50;;
55815;SDS011;41744;52.404;16.942;2023-02-01T07:06:32;10.40;;;2.03;;
55815;SDS011;41744;52.404;16.942;2023-02-01T07:09:00;9.37;;;2.20;;
55815;SDS011;41744;52.404;16.942;2023-02-01T07:11:27;15.30;;;2.47;;
55815;SDS011;41744;52.404;16.942;2023-02-01T07:13:53;13.43;;;2.30;;
55815;SDS011;41744;52.404;16.942;2023-02-01T07:16:19;10.10;;;2.27;;
55815;SDS011;41744;52.404;16.942;2023-02-01T07:18:46;9.27;;;2.47;;
55815;SDS011;41744;52.404;16.942;2023-02-01T07:21:12;12.23;;;2.60;;
55815;SDS011;41744;52.404;16.942;2023-02-01T07:23:38;11.47;;;2.50;;
55815;SDS011;41744;52.404;16.942;2023-02-01T07:26:05;21.23;;;3.00;;
55815;SDS011;41744;52.404;16.942;2023-02-01T07:28:33;16.63;;;2.53;;
55815;SDS011;41744;52.404;16.942;2023-02-01T07:31:09;15.23;;;2.87;;
55815;SDS011;41744;52.404;16.942;2023-02-01T07:33:35;10.50;;;2.03;;
55815;SDS011;41744;52.404;16.942;2023-02-01T07:36:03;19.53;;;2.67;;
55815;SDS011;41744;52.404;16.942;2023-02-01T07:38:31;9.60;;;1.93;;
55815;SDS011;41744;52.404;16.942;2023-02-01T07:40:58;22.67;;;2.50;;
55815;SDS011;41744;52.404;16.942;2023-02-01T07:43:25;14.17;;;2.47;;
55815;SDS011;41744;52.404;16.942;2023-02-01T07:45:52;18.70;;;2.70;;
55815;SDS011;41744;52.404;16.942;2023-02-01T07:48:18;14.47;;;2.50;;
55815;SDS011;41744;52.404;16.942;2023-02-01T07:50:44;9.83;;;2.67;;
55815;SDS011;41744;52.404;16.942;2023-02-01T07:53:10;13.83;;;2.50;;
55815;SDS011;41744;52.404;16.942;2023-02-01T07:55:39;13.60;;;2.87;;
55815;SDS011;41744;52.404;16.942;2023-02-01T07:58:06;19.37;;;3.17;;
55815;SDS011;41744;52.404;16.942;2023-02-01T08:00:32;13.73;;;2.93;;
55815;SDS011;41744;52.404;16.942;2023-02-01T08:03:17;14.87;;;2.50;;
55815;SDS011;41744;52.404;16.942;2023-02-01T08:05:43;18.53;;;3.27;;
55815;SDS011;41744;52.404;16.942;2023-02-01T08:08:09;13.97;;;3.53;;
55815;SDS011;41744;52.404;16.942;2023-02-01T08:10:35;14.37;;;2.80;;
55815;SDS011;41744;52.404;16.942;2023-02-01T08:13:02;14.50;;;2.53;;
55815;SDS011;41744;52.404;16.942;2023-02-01T08:15:28;14.70;;;2.60;;
55815;SDS011;41744;52.404;16.942;2023-02-01T08:17:55;11.50;;;2.70;;
55815;SDS011;41744;52.404;16.942;2023-02-01T08:20:21;13.37;;;3.23;;
55815;SDS011;41744;52.404;16.942;2023-02-01T08:22:50;15.30;;;2.53;;
55815;SDS011;41744;52.404;16.942;2023-02-01T08:25:16;12.00;;;2.70;;
55815;SDS011;41744;52.404;16.942;2023-02-01T08:27:42;13.10;;;2.50;;
55815;SDS011;41744;52.404;16.942;2023-02-01T08:30:11;17.37;;;2.63;;
55815;SDS011;41744;52.404;16.942;2023-02-01T08:32:37;23.53;;;3.53;;
55815;SDS011;41744;52.404;16.942;2023-02-01T08:35:03;22.13;;;3.20;;
55815;SDS011;41744;52.404;16.942;2023-02-01T08:37:30;15.70;;;2.97;;
55815;SDS011;41744;52.404;16.942;2023-02-01T08:39:56;13.10;;;2.60;;
55815;SDS011;41744;52.404;16.942;2023-02-01T08:42:22;12.27;;;2.60;;
55815;SDS011;41744;52.404;16.942;2023-02-01T08:45:07;15.80;;;3.00;;
55815;SDS011;41744;52.404;16.942;2023-02-01T08:47:34;19.73;;;3.33;;
55815;SDS011;41744;52.404;16.942;2023-02-01T08:50:00;20.23;;;2.93;;
55815;SDS011;41744;52.404;16.942;2023-02-01T08:52:26;14.83;;;3.30;;
55815;SDS011;41744;52.404;16.942;2023-02-01T08:54:52;17.33;;;2.70;;
55815;SDS011;41744;52.404;16.942;2023-02-01T08:57:18;17.23;;;2.60;;
55815;SDS011;41744;52.404;16.942;2023-02-01T08:59:44;13.23;;;2.57;;
55815;SDS011;41744;52.404;16.942;2023-02-01T09:02:14;15.43;;;2.70;;
55815;SDS011;41744;52.404;16.942;2023-02-01T09:04:40;14.07;;;2.73;;
55815;SDS011;41744;52.404;16.942;2023-02-01T09:07:07;17.23;;;3.23;;
55815;SDS011;41744;52.404;16.942;2023-02-01T09:09:33;17.43;;;3.10;;
55815;SDS011;41744;52.404;16.942;2023-02-01T09:11:59;16.60;;;3.20;;
55815;SDS011;41744;52.404;16.942;2023-02-01T09:14:28;11.43;;;2.70;;
55815;SDS011;41744;52.404;16.942;2023-02-01T09:16:54;20.37;;;3.40;;
55815;SDS011;41744;52.404;16.942;2023-02-01T09:19:21;11.60;;;2.93;;
55815;SDS011;41744;52.404;16.942;2023-02-01T09:21:47;10.03;;;2.80;;
55815;SDS011;41744;52.404;16.942;2023-02-01T09:24:13;11.70;;;3.03;;
55815;SDS011;41744;52.404;16.942;2023-02-01T09:26:39;11.43;;;2.43;;
55815;SDS011;41744;52.404;16.942;2023-02-01T09:29:05;12.20;;;2.83;;
55815;SDS011;41744;52.404;16.942;2023-02-01T09:31:37;11.07;;;2.97;;
55815;SDS011;41744;52.404;16.942;2023-02-01T09:34:04;10.10;;;2.43;;
55815;SDS011;41744;52.404;16.942;2023-02-01T09:36:30;15.17;;;3.10;;
55815;SDS011;41744;52.404;16.942;2023-02-01T09:38:56;9.60;;;2.40;;
55815;SDS011;41744;52.404;16.942;2023-02-01T09:44:05;13.30;;;2.60;;
55815;SDS011;41744;52.404;16.942;2023-02-01T09:46:33;6.53;;;2.00;;
55815;SDS011;41744;52.404;16.942;2023-02-01T09:49:04;9.50;;;2.27;;
55815;SDS011;41744;52.404;16.942;2023-02-01T09:51:33;11.67;;;2.63;;
55815;SDS011;41744;52.404;16.942;2023-02-01T09:54:09;11.63;;;2.63;;
55815;SDS011;41744;52.404;16.942;2023-02-01T09:59:15;9.47;;;2.60;;
55815;SDS011;41744;52.404;16.942;2023-02-01T10:01:47;9.27;;;2.73;;
55815;SDS011;41744;52.404;16.942;2023-02-01T10:04:13;11.97;;;3.07;;
55815;SDS011;41744;52.404;16.942;2023-02-01T10:09:28;12.03;;;3.07;;
55815;SDS011;41744;52.404;16.942;2023-02-01T10:21:59;16.33;;;3.00;;
55815;SDS011;41744;52.404;16.942;2023-02-01T10:27:00;12.13;;;3.43;;
55815;SDS011;41744;52.404;16.942;2023-02-01T10:29:29;13.80;;;3.50;;
55815;SDS011;41744;52.404;16.942;2023-02-01T10:31:56;13.27;;;3.37;;
55815;SDS011;41744;52.404;16.942;2023-02-01T10:34:32;12.00;;;3.77;;
55815;SDS011;41744;52.404;16.942;2023-02-01T10:37:01;14.50;;;4.17;;
55815;SDS011;41744;52.404;16.942;2023-02-01T10:39:27;18.07;;;5.27;;
55815;SDS011;41744;52.404;16.942;2023-02-01T10:41:54;16.50;;;4.30;;
55815;SDS011;41744;52.404;16.942;2023-02-01T10:44:24;8.37;;;3.47;;
55815;SDS011;41744;52.404;16.942;2023-02-01T10:46:52;12.37;;;3.90;;
55815;SDS011;41744;52.404;16.942;2023-02-01T10:49:20;14.23;;;4.47;;
55815;SDS011;41744;52.404;16.942;2023-02-01T10:51:52;12.83;;;3.93;;
55815;SDS011;41744;52.404;16.942;2023-02-01T10:54:21;9.03;;;3.50;;
55815;SDS011;41744;52.404;16.942;2023-02-01T10:56:47;11.00;;;3.73;;
55815;SDS011;41744;52.404;16.942;2023-02-01T10:59:18;12.67;;;4.17;;
55815;SDS011;41744;52.404;16.942;2023-02-01T11:01:46;15.03;;;4.23;;
55815;SDS011;41744;52.404;16.942;2023-02-01T11:04:12;8.73;;;3.40;;
55815;SDS011;41744;52.404;16.942;2023-02-01T11:06:40;10.90;;;3.40;;
55815;SDS011;41744;52.404;16.942;2023-02-01T11:11:33;13.27;;;3.50;;
55815;SDS011;41744;52.404;16.942;2023-02-01T11:14:00;11.93;;;3.07;;
55815;SDS011;41744;52.404;16.942;2023-02-01T11:16:31;6.83;;;2.80;;
55815;SDS011;41744;52.404;16.942;2023-02-01T11:18:58;6.57;;;3.03;;
55815;SDS011;41744;52.404;16.942;2023-02-01T11:21:24;9.77;;;2.97;;
55815;SDS011;41744;52.404;16.942;2023-02-01T11:23:51;9.90;;;3.50;;
55815;SDS011;41744;52.404;16.942;2023-02-01T11:26:22;10.20;;;3.30;;
55815;SDS011;41744;52.404;16.942;2023-02-01T11:31:38;8.97;;;3.20;;
55815;SDS011;41744;52.404;16.942;2023-02-01T11:34:11;10.80;;;3.47;;
55815;SDS011;41744;52.404;16.942;2023-02-01T11:36:38;12.00;;;3.60;;
55815;SDS011;41744;52.404;16.942;2023-02-01T11:41:41;6.60;;;2.77;;
55815;SDS011;41744;52.404;16.942;2023-02-01T11:44:20;7.17;;;2.83;;
55815;SDS011;41744;52.404;16.942;2023-02-01T11:46:47;10.00;;;3.60;;
55815;SDS011;41744;52.404;16.942;2023-02-01T11:49:21;8.63;;;2.87;;
55815;SDS011;41744;52.404;16.942;2023-02-01T11:54:45;13.77;;;3.57;;
55815;SDS011;41744;52.404;16.942;2023-02-01T12:09:59;12.93;;;3.57;;
55815;SDS011;41744;52.404;16.942;2023-02-01T12:15:16;9.20;;;3.57;;
55815;SDS011;41744;52.404;16.942;2023-02-01T12:20:21;7.67;;;2.40;;
55815;SDS011;41744;52.404;16.942;2023-02-01T12:36:00;8.77;;;3.30;;
55815;SDS011;41744;52.404;16.942;2023-02-01T12:38:42;8.83;;;3.10;;
55815;SDS011;41744;52.404;16.942;2023-02-01T12:46:25;7.80;;;2.80;;
55815;SDS011;41744;52.404;16.942;2023-02-01T12:48:59;12.07;;;3.20;;
55815;SDS011;41744;52.404;16.942;2023-02-01T12:51:27;9.73;;;3.33;;
55815;SDS011;41744;52.404;16.942;2023-02-01T12:57:06;6.87;;;2.90;;
55815;SDS011;41744;52.404;16.942;2023-02-01T13:07:25;9.77;;;2.57;;
55815;SDS011;41744;52.404;16.942;2023-02-01T13:10:01;11.77;;;3.67;;
55815;SDS011;41744;52.404;16.942;2023-02-01T13:12:33;5.83;;;2.20;;
55815;SDS011;41744;52.404;16.942;2023-02-01T13:17:44;4.00;;;1.97;;
55815;SDS011;41744;52.404;16.942;2023-02-01T13:22:51;4.40;;;1.77;;
55815;SDS011;41744;52.404;16.942;2023-02-01T13:27:55;8.97;;;2.00;;
55815;SDS011;41744;52.404;16.942;2023-02-01T13:30:30;4.33;;;1.87;;
55815;SDS011;41744;52.404;16.942;2023-02-01T13:44:16;5.43;;;1.70;;
55815;SDS011;41744;52.404;16.942;2023-02-01T13:46:45;9.77;;;2.00;;
55815;SDS011;41744;52.404;16.942;2023-02-01T13:49:18;5.83;;;1.93;;
55815;SDS011;41744;52.404;16.942;2023-02-01T13:51:46;6.17;;;1.67;;
55815;SDS011;41744;52.404;16.942;2023-02-01T13:57:58;8.63;;;1.80;;
55815;SDS011;41744;52.404;16.942;2023-02-01T14:00:05;6.10;;;1.90;;
55815;SDS011;41744;52.404;16.942;2023-02-01T14:05:04;4.43;;;2.00;;
55815;SDS011;41744;52.404;16.942;2023-02-01T14:07:30;6.67;;;2.00;;
55815;SDS011;41744;52.404;16.942;2023-02-01T14:09:56;6.23;;;1.93;;
55815;SDS011;41744;52.404;16.942;2023-02-01T14:15:18;5.27;;;1.70;;
55815;SDS011;41744;52.404;16.942;2023-02-01T14:17:46;6.70;;;1.70;;
55815;SDS011;41744;52.404;16.942;2023-02-01T14:23:03;8.67;;;1.87;;
55815;SDS011;41744;52.404;16.942;2023-02-01T14:25:33;8.70;;;2.17;;
55815;SDS011;41744;52.404;16.942;2023-02-01T14:27:59;10.67;;;1.90;;
55815;SDS011;41744;52.404;16.942;2023-02-01T14:30:25;7.57;;;1.53;;
55815;SDS011;41744;52.404;16.942;2023-02-01T14:32:51;7.73;;;1.93;;
55815;SDS011;41744;52.404;16.942;2023-02-01T14:35:19;9.40;;;1.70;;
55815;SDS011;41744;52.404;16.942;2023-02-01T14:37:46;8.13;;;1.70;;
55815;SDS011;41744;52.404;16.942;2023-02-01T14:50:27;6.90;;;2.00;;
55815;SDS011;41744;52.404;16.942;2023-02-01T14:55:37;9.80;;;2.20;;
55815;SDS011;41744;52.404;16.942;2023-02-01T14:58:13;10.93;;;2.60;;
55815;SDS011;41744;52.404;16.942;2023-02-01T15:06:41;8.03;;;2.33;;
55815;SDS011;41744;52.404;16.942;2023-02-01T15:11:28;10.60;;;2.50;;
55815;SDS011;41744;52.404;16.942;2023-02-01T15:13:55;11.60;;;2.87;;
55815;SDS011;41744;52.404;16.942;2023-02-01T15:16:25;9.20;;;2.93;;
55815;SDS011;41744;52.404;16.942;2023-02-01T15:19:06;10.37;;;3.10;;
55815;SDS011;41744;52.404;16.942;2023-02-01T15:21:32;8.97;;;2.50;;
55815;SDS011;41744;52.404;16.942;2023-02-01T15:24:14;9.43;;;2.60;;
55815;SDS011;41744;52.404;16.942;2023-02-01T15:26:40;11.70;;;3.40;;
55815;SDS011;41744;52.404;16.942;2023-02-01T15:29:10;8.83;;;2.87;;
55815;SDS011;41744;52.404;16.942;2023-02-01T15:31:37;10.67;;;2.67;;
55815;SDS011;41744;52.404;16.942;2023-02-01T15:34:03;9.77;;;3.30;;
55815;SDS011;41744;52.404;16.942;2023-02-01T15:36:29;10.77;;;3.20;;
55815;SDS011;41744;52.404;16.942;2023-02-01T15:42:21;7.20;;;2.70;;
55815;SDS011;41744;52.404;16.942;2023-02-01T15:44:46;10.33;;;2.57;;
55815;SDS011;41744;52.404;16.942;2023-02-01T15:47:15;9.50;;;3.07;;
55815;SDS011;41744;52.404;16.942;2023-02-01T15:49:41;9.90;;;2.90;;
55815;SDS011;41744;52.404;16.942;2023-02-01T15:52:13;7.30;;;2.50;;
55815;SDS011;41744;52.404;16.942;2023-02-01T15:54:46;13.03;;;3.07;;
55815;SDS011;41744;52.404;16.942;2023-02-01T15:57:18;10.43;;;2.90;;
55815;SDS011;41744;52.404;16.942;2023-02-01T15:59:47;9.20;;;3.07;;
55815;SDS011;41744;52.404;16.942;2023-02-01T16:02:25;6.70;;;2.67;;
55815;SDS011;41744;52.404;16.942;2023-02-01T16:04:51;7.43;;;2.50;;
55815;SDS011;41744;52.404;16.942;2023-02-01T16:07:28;7.13;;;2.40;;
55815;SDS011;41744;52.404;16.942;2023-02-01T16:09:56;6.87;;;2.43;;
55815;SDS011;41744;52.404;16.942;2023-02-01T16:14:48;10.77;;;2.73;;
55815;SDS011;41744;52.404;16.942;2023-02-01T16:17:14;9.83;;;2.83;;
55815;SDS011;41744;52.404;16.942;2023-02-01T16:19:40;6.67;;;2.37;;
55815;SDS011;41744;52.404;16.942;2023-02-01T16:22:06;6.73;;;3.03;;
55815;SDS011;41744;52.404;16.942;2023-02-01T16:24:32;12.20;;;3.13;;
55815;SDS011;41744;52.404;16.942;2023-02-01T16:26:59;10.17;;;2.50;;
55815;SDS011;41744;52.404;16.942;2023-02-01T16:29:25;10.30;;;2.47;;
55815;SDS011;41744;52.404;16.942;2023-02-01T16:31:51;8.73;;;2.60;;
55815;SDS011;41744;52.404;16.942;2023-02-01T16:34:17;9.30;;;2.90;;
55815;SDS011;41744;52.404;16.942;2023-02-01T16:36:44;9.50;;;3.00;;
55815;SDS011;41744;52.404;16.942;2023-02-01T16:39:16;9.63;;;3.23;;
55815;SDS011;41744;52.404;16.942;2023-02-01T16:41:42;11.40;;;2.97;;
55815;SDS011;41744;52.404;16.942;2023-02-01T16:44:10;8.03;;;3.13;;
55815;SDS011;41744;52.404;16.942;2023-02-01T16:46:39;10.47;;;3.50;;
55815;SDS011;41744;52.404;16.942;2023-02-01T16:49:16;10.00;;;3.67;;
55815;SDS011;41744;52.404;16.942;2023-02-01T16:51:43;14.77;;;3.83;;
55815;SDS011;41744;52.404;16.942;2023-02-01T16:54:10;13.10;;;3.80;;
55815;SDS011;41744;52.404;16.942;2023-02-01T16:56:36;9.17;;;4.03;;
55815;SDS011;41744;52.404;16.942;2023-02-01T16:59:04;8.37;;;3.60;;
55815;SDS011;41744;52.404;16.942;2023-02-01T17:01:30;11.57;;;3.63;;
55815;SDS011;41744;52.404;16.942;2023-02-01T17:03:56;15.73;;;4.20;;
55815;SDS011;41744;52.404;16.942;2023-02-01T17:06:24;11.83;;;4.30;;
55815;SDS011;41744;52.404;16.942;2023-02-01T17:08:54;10.17;;;3.47;;
55815;SDS011;41744;52.404;16.942;2023-02-01T17:11:22;9.73;;;3.57;;
55815;SDS011;41744;52.404;16.942;2023-02-01T17:13:48;10.00;;;3.27;;
55815;SDS011;41744;52.404;16.942;2023-02-01T17:16:19;14.83;;;3.43;;
55815;SDS011;41744;52.404;16.942;2023-02-01T17:18:47;10.07;;;3.70;;
55815;SDS011;41744;52.404;16.942;2023-02-01T17:21:16;11.77;;;3.30;;